createdAt,value
2022-12-19T05:02:44.573Z,102648.75
2022-12-19T05:05:47.041Z,102644.50
2022-12-19T05:08:49.274Z,102645.75
2022-12-19T05:11:51.719Z,102646.13
2022-12-19T05:14:53.790Z,102648.91
2022-12-19T05:17:57.460Z,102655.34
2022-12-19T05:20:59.566Z,102655.19
2022-12-19T05:24:01.930Z,102649.06
2022-12-19T05:27:04.152Z,102650.72
2022-12-19T05:30:07.062Z,102654.72
2022-12-19T05:33:09.190Z,102649.00
2022-12-19T05:36:12.592Z,102649.53
2022-12-19T05:39:14.633Z,102639.06
2022-12-19T05:42:16.936Z,102631.81
2022-12-19T05:45:19.166Z,102640.03
2022-12-19T05:48:21.509Z,102639.47
2022-12-19T05:51:23.637Z,102656.22
2022-12-19T05:54:26.126Z,102656.34
2022-12-19T05:57:28.176Z,102645.03
2022-12-19T06:00:30.499Z,102648.09
2022-12-19T06:03:32.913Z,102650.84
2022-12-19T06:06:35.046Z,102635.19
2022-12-19T06:09:37.393Z,102642.31
2022-12-19T06:12:39.484Z,102658.72
2022-12-19T06:15:41.818Z,102654.31
2022-12-19T06:18:45.562Z,102656.22
2022-12-19T06:21:48.776Z,102659.91
2022-12-19T06:24:50.940Z,102662.59
2022-12-19T06:27:53.280Z,102664.94
2022-12-19T06:31:00.270Z,102666.97
2022-12-19T06:34:02.590Z,102662.38
2022-12-19T06:37:08.068Z,102661.44
2022-12-19T06:40:31.272Z,102664.28
2022-12-19T06:43:33.301Z,102675.44
2022-12-19T06:46:35.677Z,102674.63
2022-12-19T06:49:37.806Z,102676.25
2022-12-19T06:52:40.153Z,102671.28
2022-12-19T06:55:42.740Z,102674.81
2022-12-19T06:58:45.082Z,102666.00
2022-12-19T07:02:10.170Z,102667.91
2022-12-19T07:05:13.518Z,102664.59
2022-12-19T07:08:15.991Z,102672.66
2022-12-19T07:11:18.382Z,102674.91
2022-12-19T07:14:20.666Z,102679.09
2022-12-19T07:17:24.681Z,102684.97
2022-12-19T07:20:27.958Z,102685.56
2022-12-19T07:23:30.632Z,102691.75
2022-12-19T07:26:33.259Z,102681.66
2022-12-19T07:29:35.579Z,102676.28
2022-12-19T07:32:39.437Z,102670.28
2022-12-19T07:35:41.741Z,102684.44
2022-12-19T07:38:44.353Z,102683.78
2022-12-19T07:41:46.691Z,102681.69
2022-12-19T07:44:48.798Z,102681.09
2022-12-19T07:47:51.152Z,102675.72
2022-12-19T07:50:53.231Z,102672.94
2022-12-19T07:53:55.563Z,102674.41
2022-12-19T07:56:57.691Z,102675.22
2022-12-19T08:00:00.221Z,102683.25
2022-12-19T09:47:59.183Z,102650.13
2022-12-19T09:51:41.287Z,102651.19
2022-12-19T09:54:48.888Z,102641.91
2022-12-19T09:57:59.678Z,102635.22
2022-12-19T10:01:08.229Z,102640.16
2022-12-19T10:04:12.165Z,102632.06
2022-12-19T10:07:40.086Z,102634.50
2022-12-19T10:12:34.446Z,102634.72
2022-12-19T10:14:58.682Z,102619.87
2022-12-19T10:19:00.086Z,102612.19
2022-12-19T10:22:19.778Z,102623.03
2022-12-19T10:25:40.519Z,102619.19
2022-12-19T10:29:01.396Z,102622.00
2022-12-19T10:32:24.242Z,102623.19
2022-12-19T10:35:43.219Z,102625.38
2022-12-19T10:39:09.053Z,102610.81
2022-12-19T10:42:32.746Z,102606.31
2022-12-19T10:45:44.389Z,102590.09
2022-12-19T10:48:52.267Z,102591.81
2022-12-19T10:52:01.987Z,102590.31
2022-12-19T10:55:22.489Z,102588.34
2022-12-19T10:58:36.652Z,102586.31
2022-12-19T11:01:39.221Z,102590.44
2022-12-19T11:04:48.130Z,102583.59
2022-12-19T11:08:06.467Z,102579.88
2022-12-19T11:13:31.281Z,102575.87
2022-12-19T11:17:22.054Z,102566.22
2022-12-19T11:23:26.414Z,102568.66
2022-12-19T11:29:34.915Z,102572.78
2022-12-19T11:30:35.951Z,102569.78
2022-12-19T11:30:45.508Z,102567.75
2022-12-19T11:35:25.456Z,102564.91
2022-12-19T11:38:51.527Z,102560.41
2022-12-19T11:42:11.333Z,102562.03
2022-12-19T11:45:15.626Z,102550.16
2022-12-19T11:48:30.786Z,102545.72
2022-12-19T11:56:08.010Z,102531.37
2022-12-19T11:59:32.085Z,102525.94
2022-12-19T12:02:51.529Z,102507.53
2022-12-19T12:05:56.533Z,102511.81
2022-12-19T12:12:55.094Z,102512.41
2022-12-19T12:19:39.158Z,102514.31
2022-12-19T12:28:21.729Z,102511.37
2022-12-19T12:31:18.720Z,102514.22
2022-12-19T12:31:23.647Z,102514.97
2022-12-19T12:32:03.363Z,102504.94
2022-12-19T12:37:51.109Z,102498.09
2022-12-19T12:38:53.977Z,102505.47
2022-12-19T12:42:19.324Z,102499.28
2022-12-19T12:45:40.750Z,102498.25
2022-12-19T12:48:50.387Z,102499.16
2022-12-19T12:51:56.009Z,102496.34
2022-12-19T12:55:00.892Z,102488.81
2022-12-19T12:58:03.363Z,102490.87
2022-12-19T13:01:12.307Z,102479.19
2022-12-19T13:04:14.493Z,102480.44
2022-12-19T13:07:50.338Z,102471.44
2022-12-19T13:10:59.202Z,102474.03
2022-12-19T13:14:01.590Z,102478.66
2022-12-19T13:17:05.540Z,102478.25
2022-12-19T13:20:12.975Z,102481.63
2022-12-19T13:23:32.311Z,102474.63
2022-12-19T13:26:47.545Z,102473.09
2022-12-19T13:30:00.023Z,102469.88
2022-12-19T13:33:02.428Z,102467.44
2022-12-19T13:39:51.773Z,102457.78
2022-12-19T13:40:02.080Z,102459.19
2022-12-19T13:43:32.548Z,102458.41
2022-12-19T13:46:45.587Z,102449.78
2022-12-19T13:49:48.236Z,102438.84
2022-12-19T13:52:52.220Z,102438.72
2022-12-19T13:55:59.319Z,102453.53
2022-12-19T13:59:05.065Z,102461.09
2022-12-19T14:02:24.825Z,102455.59
2022-12-19T14:06:15.827Z,102454.81
2022-12-19T14:10:49.716Z,102451.94
2022-12-19T14:13:46.168Z,102452.88
2022-12-19T14:16:19.016Z,102459.47
2022-12-19T14:19:30.152Z,102451.97
2022-12-19T14:22:32.883Z,102444.22
2022-12-19T14:27:57.373Z,102452.47
2022-12-19T14:29:14.543Z,102445.78
2022-12-19T14:33:40.459Z,102447.44
2022-12-19T14:36:07.778Z,102437.25
2022-12-19T14:39:24.147Z,102444.47
2022-12-19T14:43:58.793Z,102446.81
2022-12-19T14:54:10.513Z,102448.28
2022-12-19T14:54:11.033Z,102449.38
2022-12-19T14:54:30.698Z,102459.91
2022-12-19T14:56:59.259Z,102458.25
2022-12-19T15:01:07.010Z,102454.75
2022-12-19T15:04:50.654Z,102453.28
2022-12-19T15:07:29.338Z,102451.47
2022-12-19T15:11:03.597Z,102456.75
2022-12-19T15:14:55.132Z,102454.00
2022-12-19T15:17:23.549Z,102457.03
2022-12-19T15:20:25.929Z,102461.38
2022-12-19T15:23:28.822Z,102464.72
2022-12-19T15:26:35.218Z,102465.25
2022-12-19T15:29:40.975Z,102459.31
2022-12-19T15:32:45.242Z,102460.87
2022-12-19T15:35:47.426Z,102464.59
2022-12-19T15:38:50.172Z,102469.06
2022-12-19T15:41:54.468Z,102476.16
2022-12-19T15:44:59.799Z,102463.41
2022-12-19T15:48:01.987Z,102472.47
2022-12-19T15:51:04.343Z,102472.97
2022-12-19T15:54:38.721Z,102465.59
2022-12-19T15:57:36.387Z,102467.25
2022-12-19T16:00:39.745Z,102463.09
2022-12-19T16:03:42.360Z,102463.59
2022-12-19T16:06:44.646Z,102460.81
2022-12-19T16:09:48.142Z,102450.75
2022-12-19T16:12:55.206Z,102453.50
2022-12-19T16:15:58.269Z,102452.59
2022-12-19T16:19:00.422Z,102451.25
2022-12-19T16:22:16.359Z,102446.59
2022-12-19T16:25:20.243Z,102451.41
2022-12-19T16:28:35.749Z,102441.84
2022-12-19T16:31:37.862Z,102451.31
2022-12-19T16:34:40.243Z,102446.78
2022-12-19T16:37:42.467Z,102445.38
